createdAt,value
2023-03-23T16:00:20.074Z,2.13
2023-03-23T16:02:50.066Z,2.20
2023-03-23T16:05:19.503Z,1.93
2023-03-23T16:07:47.468Z,2.13
2023-03-23T16:10:18.921Z,2.60
2023-03-23T16:12:47.390Z,1.73
2023-03-23T16:15:16.645Z,2.17
2023-03-23T16:17:46.463Z,1.80
2023-03-23T16:20:16.793Z,1.97
2023-03-23T16:22:46.321Z,1.93
2023-03-23T16:25:15.361Z,1.90
2023-03-23T16:27:44.271Z,2.03
2023-03-23T16:30:18.517Z,1.97
2023-03-23T16:32:47.695Z,2.20
2023-03-23T16:35:16.423Z,2.07
2023-03-23T16:37:51.478Z,1.73
2023-03-23T16:40:35.755Z,1.90
2023-03-23T16:43:08.276Z,1.73
2023-03-23T16:45:38.334Z,1.97
2023-03-23T16:48:07.876Z,1.77
2023-03-23T16:50:37.278Z,1.67
2023-03-23T16:53:08.112Z,1.80
2023-03-23T16:55:36.831Z,1.87
2023-03-23T16:58:16.441Z,1.67
2023-03-23T17:00:48.003Z,2.00
2023-03-23T17:03:16.887Z,1.67
2023-03-23T17:05:46.251Z,2.13
2023-03-23T17:08:16.438Z,1.83
2023-03-23T17:10:44.738Z,1.77
2023-03-23T17:13:13.585Z,1.77
2023-03-23T17:15:45.916Z,2.20
2023-03-23T17:18:15.885Z,1.90
2023-03-23T17:20:43.992Z,2.00
2023-03-23T17:23:12.228Z,2.10
2023-03-23T17:25:41.846Z,1.90
2023-03-23T17:28:10.530Z,1.77
2023-03-23T17:30:41.306Z,1.60
2023-03-23T17:33:09.503Z,1.70
2023-03-23T17:35:37.622Z,2.23
2023-03-23T17:38:06.405Z,1.80
2023-03-23T17:40:34.616Z,2.23
2023-03-23T17:43:04.067Z,1.70
2023-03-23T17:45:32.095Z,1.60
2023-03-23T17:48:00.606Z,1.80
2023-03-23T17:50:28.684Z,2.10
2023-03-23T17:52:57.890Z,1.70
2023-03-23T17:55:26.187Z,1.67
2023-03-23T17:57:54.294Z,2.10
2023-03-23T18:00:23.906Z,1.80
2023-03-23T18:02:52.519Z,1.87
2023-03-23T18:05:21.023Z,2.10
2023-03-23T18:07:49.036Z,1.93
2023-03-23T18:10:17.841Z,2.00
2023-03-23T18:12:46.113Z,1.93
2023-03-23T18:15:14.098Z,1.90
2023-03-23T18:17:47.930Z,2.00
2023-03-23T18:20:16.538Z,2.00
2023-03-23T18:22:44.815Z,2.10
2023-03-23T18:25:12.844Z,1.77
2023-03-23T18:27:41.042Z,2.03
2023-03-23T18:30:10.706Z,2.17
2023-03-23T18:32:40.239Z,1.97
2023-03-23T18:35:11.765Z,1.80
2023-03-23T18:37:41.320Z,1.30
2023-03-23T18:40:11.995Z,1.90
2023-03-23T18:42:42.155Z,2.00
2023-03-23T18:45:10.775Z,1.70
2023-03-23T18:47:39.096Z,2.13
2023-03-23T18:50:10.577Z,2.20
2023-03-23T18:52:38.754Z,1.80
2023-03-23T18:55:07.463Z,1.70
2023-03-23T18:57:35.474Z,2.07
2023-03-23T19:00:04.656Z,2.00
2023-03-23T19:02:33.226Z,2.07
2023-03-23T19:05:01.689Z,1.70
2023-03-23T19:07:31.994Z,2.20
2023-03-23T19:10:00.014Z,2.40
2023-03-23T19:12:28.238Z,1.70
2023-03-23T19:14:56.361Z,1.90
2023-03-23T19:17:25.149Z,1.70
2023-03-23T19:19:53.275Z,2.47
2023-03-23T19:22:21.911Z,2.90
2023-03-23T19:24:51.230Z,2.00
2023-03-23T19:27:20.993Z,1.97
2023-03-23T19:29:49.228Z,2.10
2023-03-23T19:32:17.453Z,1.93
2023-03-23T19:34:50.777Z,1.57
2023-03-23T19:37:19.854Z,2.10
2023-03-23T19:39:48.432Z,1.60
2023-03-23T19:42:20.451Z,1.63
2023-03-23T19:44:50.424Z,2.13
2023-03-23T19:47:19.047Z,2.00
2023-03-23T19:49:47.757Z,2.00
2023-03-23T19:52:18.262Z,2.07
2023-03-23T19:54:47.107Z,2.13
2023-03-23T19:57:16.165Z,1.73
2023-03-23T19:59:45.852Z,2.07
2023-03-23T20:02:14.841Z,2.30
2023-03-23T20:04:45.055Z,1.93
2023-03-23T20:07:13.818Z,1.83
2023-03-23T20:09:43.209Z,1.97
2023-03-23T20:12:11.157Z,1.97
2023-03-23T20:14:44.132Z,2.13
2023-03-23T20:17:14.547Z,1.80
2023-03-23T20:19:43.045Z,2.50
2023-03-23T20:22:11.262Z,2.40
2023-03-23T20:24:39.594Z,2.30
2023-03-23T20:27:08.080Z,2.23
2023-03-23T20:29:36.321Z,2.10
2023-03-23T20:32:04.366Z,2.43
2023-03-23T20:34:34.310Z,2.40
2023-03-23T20:37:03.317Z,2.10
2023-03-23T20:39:32.943Z,2.50
2023-03-23T20:42:03.216Z,2.50
2023-03-23T20:44:35.009Z,2.17
2023-03-23T20:47:04.281Z,2.93
2023-03-23T20:49:36.981Z,2.53
2023-03-23T20:52:06.185Z,2.37
2023-03-23T20:54:35.485Z,2.70
2023-03-23T20:57:03.603Z,2.27
2023-03-23T20:59:31.633Z,2.50
2023-03-23T21:01:59.618Z,2.80
2023-03-23T21:04:28.105Z,1.90
2023-03-23T21:06:57.400Z,2.43
2023-03-23T21:09:26.375Z,2.60
2023-03-23T21:11:54.871Z,2.60
2023-03-23T21:14:23.165Z,2.60
2023-03-23T21:16:51.390Z,2.63
2023-03-23T21:19:20.513Z,2.70
2023-03-23T21:21:55.939Z,3.13
2023-03-23T21:24:28.861Z,3.23
2023-03-23T21:26:59.284Z,2.50
2023-03-23T21:29:28.240Z,2.30
2023-03-23T21:32:07.703Z,1.77
2023-03-23T21:34:37.794Z,2.90
2023-03-23T21:37:06.301Z,2.77
2023-03-23T21:39:35.918Z,3.00
2023-03-23T21:42:06.662Z,3.00
2023-03-23T21:44:35.963Z,2.47
2023-03-23T21:47:04.632Z,2.33
2023-03-23T21:49:33.195Z,2.70
2023-03-23T21:52:02.143Z,2.83
2023-03-23T21:54:31.059Z,2.70
2023-03-23T21:57:01.508Z,2.27
2023-03-23T21:59:29.714Z,2.00
2023-03-23T22:01:58.968Z,2.60
2023-03-23T22:04:46.045Z,2.27
2023-03-23T22:07:33.234Z,3.00
2023-03-23T22:10:01.309Z,2.70
2023-03-23T22:12:30.656Z,2.60
2023-03-23T22:14:58.644Z,3.10
2023-03-23T22:17:26.642Z,3.07
2023-03-23T22:19:54.723Z,2.70
2023-03-23T22:22:22.740Z,2.23
2023-03-23T22:24:51.688Z,2.87
2023-03-23T22:27:19.706Z,2.73
2023-03-23T22:29:49.055Z,2.80
2023-03-23T22:32:17.168Z,3.63
2023-03-23T22:34:47.307Z,3.17
2023-03-23T22:37:16.340Z,2.50
2023-03-23T22:39:44.449Z,2.70
2023-03-23T22:42:13.551Z,3.07
2023-03-23T22:44:41.633Z,2.90
2023-03-23T22:47:10.976Z,2.97
2023-03-23T22:49:39.044Z,2.93
2023-03-23T22:52:07.214Z,3.00
2023-03-23T22:54:35.259Z,2.37
2023-03-23T22:57:03.364Z,2.20
2023-03-23T22:59:31.451Z,2.07
2023-03-23T23:01:59.616Z,2.43
2023-03-23T23:04:29.022Z,2.47
2023-03-23T23:07:06.729Z,2.30
2023-03-23T23:09:40.376Z,2.40
2023-03-23T23:12:09.001Z,2.40
2023-03-23T23:14:37.563Z,1.80
2023-03-23T23:17:05.702Z,2.50
2023-03-23T23:19:35.160Z,2.27
2023-03-23T23:22:17.904Z,2.27
2023-03-23T23:24:47.291Z,2.60
2023-03-23T23:27:15.624Z,2.20
2023-03-23T23:29:44.766Z,2.40
2023-03-23T23:32:13.082Z,2.27
2023-03-23T23:34:42.527Z,2.20
2023-03-23T23:37:10.522Z,2.60
2023-03-23T23:39:41.177Z,2.20
2023-03-23T23:42:09.488Z,2.37
2023-03-23T23:44:37.537Z,1.97
2023-03-23T23:47:05.948Z,2.70
2023-03-23T23:49:34.324Z,2.70
2023-03-23T23:52:03.826Z,2.20
2023-03-23T23:54:32.075Z,2.60
2023-03-23T23:57:01.437Z,1.90
2023-03-23T23:59:29.929Z,2.40
